createdAt,value
2022-08-05T00:01:36.078Z,26.53
2022-08-05T00:04:18.742Z,26.52
2022-08-05T00:06:51.656Z,26.55
2022-08-05T00:09:20.434Z,26.45
2022-08-05T00:11:49.423Z,26.36
2022-08-05T00:14:27.855Z,26.30
2022-08-05T00:16:58.149Z,26.25
2022-08-05T00:19:33.421Z,26.06
2022-08-05T00:22:11.209Z,26.00
2022-08-05T00:24:42.417Z,25.88
2022-08-05T00:27:14.185Z,25.73
2022-08-05T00:29:45.270Z,25.56
2022-08-05T00:32:15.329Z,25.53
2022-08-05T00:35:05.710Z,25.40
2022-08-05T00:37:35.420Z,25.39
2022-08-05T00:40:26.682Z,25.38
2022-08-05T00:42:58.624Z,25.39
2022-08-05T00:45:37.804Z,25.35
2022-08-05T00:48:07.197Z,25.28
2022-08-05T00:50:37.223Z,25.33
2022-08-05T00:53:09.620Z,25.26
2022-08-05T00:55:44.857Z,25.27
2022-08-05T00:58:14.293Z,25.17
2022-08-05T01:00:42.549Z,25.22
2022-08-05T01:03:22.188Z,25.25
2022-08-05T01:05:54.432Z,25.18
2022-08-05T01:08:31.622Z,25.18
2022-08-05T01:11:14.936Z,25.17
2022-08-05T01:14:01.674Z,25.20
2022-08-05T01:16:34.946Z,25.17
2022-08-05T01:19:14.347Z,25.30
2022-08-05T01:21:58.213Z,25.34
2022-08-05T01:24:47.670Z,25.26
2022-08-05T01:27:33.081Z,25.25
2022-08-05T01:30:05.734Z,25.33
2022-08-05T01:32:48.358Z,25.34
2022-08-05T01:35:51.216Z,25.25
2022-08-05T01:38:14.579Z,25.30
2022-08-05T01:40:56.542Z,25.47
2022-08-05T01:43:26.172Z,25.39
2022-08-05T01:45:57.320Z,25.35
2022-08-05T01:48:27.026Z,25.28
2022-08-05T01:50:57.504Z,25.18
2022-08-05T01:53:54.588Z,25.27
2022-08-05T01:58:11.072Z,25.24
2022-08-05T01:59:12.650Z,25.21
2022-08-05T02:01:46.177Z,25.20
2022-08-05T02:04:17.511Z,25.22
2022-08-05T02:06:45.835Z,25.23
2022-08-05T02:09:16.461Z,25.26
2022-08-05T02:11:52.818Z,25.45
2022-08-05T02:14:27.983Z,25.36
2022-08-05T02:17:05.081Z,25.26
2022-08-05T02:19:47.446Z,25.19
2022-08-05T02:22:26.560Z,25.19
2022-08-05T02:25:13.106Z,25.14
2022-08-05T02:27:58.634Z,25.05
2022-08-05T02:30:34.294Z,24.99
2022-08-05T02:33:06.694Z,24.97
2022-08-05T02:35:38.533Z,24.92
2022-08-05T02:38:20.035Z,24.96
2022-08-05T02:40:54.921Z,25.00
2022-08-05T02:43:27.313Z,24.97
2022-08-05T02:45:57.768Z,24.93
2022-08-05T02:48:31.903Z,24.88
2022-08-05T02:51:01.332Z,24.85
2022-08-05T02:53:38.943Z,24.85
2022-08-05T02:56:15.644Z,24.75
2022-08-05T02:58:51.643Z,24.62
2022-08-05T03:01:27.144Z,24.57
2022-08-05T03:04:02.720Z,24.36
2022-08-05T03:06:55.890Z,24.39
2022-08-05T03:09:27.150Z,24.38
2022-08-05T03:12:05.699Z,24.39
2022-08-05T03:14:33.757Z,24.64
2022-08-05T03:17:05.061Z,24.56
2022-08-05T03:19:38.236Z,24.50
2022-08-05T03:22:16.023Z,24.58
2022-08-05T03:24:47.247Z,24.58
2022-08-05T03:27:19.679Z,24.53
2022-08-05T03:30:07.536Z,24.46
2022-08-05T03:32:36.817Z,24.39
2022-08-05T03:35:07.399Z,24.28
2022-08-05T03:37:45.709Z,24.20
2022-08-05T03:40:15.402Z,24.41
2022-08-05T03:42:53.059Z,24.42
2022-08-05T03:45:23.549Z,24.42
2022-08-05T03:47:57.219Z,24.33
2022-08-05T03:50:34.619Z,24.28
2022-08-05T03:55:51.626Z,24.12
2022-08-05T03:56:11.922Z,24.21
2022-08-05T03:58:47.795Z,24.07
2022-08-05T04:01:21.965Z,23.89
2022-08-05T04:04:05.383Z,23.61
2022-08-05T04:06:47.424Z,23.40
2022-08-05T04:09:25.889Z,23.30
2022-08-05T04:11:56.586Z,23.23
2022-08-05T04:14:29.733Z,23.10
2022-08-05T04:17:02.966Z,22.99
2022-08-05T04:19:31.383Z,22.99
2022-08-05T04:22:09.205Z,22.81
2022-08-05T04:24:43.939Z,22.58
2022-08-05T04:27:14.191Z,22.45
2022-08-05T04:29:43.784Z,22.41
2022-08-05T04:32:12.083Z,22.38
2022-08-05T04:34:43.336Z,22.43
2022-08-05T04:37:13.133Z,22.39
2022-08-05T04:39:41.179Z,22.25
2022-08-05T04:42:10.317Z,22.29
2022-08-05T04:44:39.254Z,22.37
2022-08-05T04:47:09.458Z,22.39
2022-08-05T04:50:01.770Z,22.37
2022-08-05T04:52:29.382Z,22.39
2022-08-05T04:55:14.423Z,22.35
2022-08-05T04:57:47.690Z,22.35
2022-08-05T05:00:17.126Z,22.31
2022-08-05T05:02:45.309Z,22.31
2022-08-05T05:05:17.009Z,22.35
2022-08-05T05:08:02.419Z,22.39
2022-08-05T05:10:33.210Z,22.36
2022-08-05T05:13:04.014Z,22.31
2022-08-05T05:15:56.169Z,22.34
2022-08-05T05:18:31.087Z,22.44
2022-08-05T05:21:03.343Z,22.52
2022-08-05T05:24:02.088Z,22.80
2022-08-05T05:26:28.325Z,23.13
2022-08-05T05:29:02.360Z,23.36
2022-08-05T05:34:02.470Z,23.53
2022-08-05T05:36:31.916Z,23.65
2022-08-05T05:39:03.532Z,23.68
2022-08-05T05:41:40.897Z,23.75
2022-08-05T05:44:35.793Z,23.70
2022-08-05T05:47:04.274Z,23.69
2022-08-05T05:49:33.060Z,23.54
2022-08-05T05:52:07.227Z,23.61
2022-08-05T05:54:51.091Z,23.67
2022-08-05T05:57:20.382Z,23.79
2022-08-05T05:59:49.161Z,23.94
2022-08-05T06:02:36.696Z,24.31
2022-08-05T06:05:14.675Z,24.39
2022-08-05T06:07:57.790Z,24.67
2022-08-05T06:10:36.729Z,24.75
2022-08-05T06:13:06.343Z,24.73
2022-08-05T06:16:27.361Z,25.12
2022-08-05T06:18:31.191Z,24.87
2022-08-05T06:21:00.531Z,24.83
2022-08-05T06:23:43.542Z,24.89
2022-08-05T06:26:21.330Z,25.06
2022-08-05T06:28:52.391Z,24.94
2022-08-05T06:31:22.066Z,25.16
2022-08-05T06:34:07.263Z,25.23
2022-08-05T06:36:56.871Z,25.65
2022-08-05T06:39:27.250Z,26.28
2022-08-05T06:41:59.278Z,26.86
2022-08-05T06:44:27.844Z,26.69
2022-08-05T06:46:56.471Z,27.10
2022-08-05T06:50:00.025Z,27.44
2022-08-05T06:52:37.104Z,27.72
2022-08-05T06:55:02.403Z,28.34
2022-08-05T06:58:03.004Z,28.23
2022-08-05T07:00:24.772Z,28.51
2022-08-05T07:02:54.369Z,29.30
2022-08-05T07:05:36.939Z,28.97
2022-08-05T07:08:10.013Z,28.90
2022-08-05T07:10:39.420Z,28.35
2022-08-05T07:13:59.101Z,28.03
2022-08-05T07:17:59.396Z,27.52
2022-08-05T07:20:23.121Z,27.29
2022-08-05T07:22:22.438Z,27.39
2022-08-05T07:24:57.586Z,27.39
2022-08-05T07:27:27.569Z,27.27
2022-08-05T07:30:25.452Z,26.99
2022-08-05T07:32:58.845Z,26.85
2022-08-05T07:36:04.333Z,26.57
2022-08-05T07:38:33.561Z,26.47
2022-08-05T07:42:07.173Z,26.52
2022-08-05T07:43:55.135Z,26.32
2022-08-05T07:46:27.432Z,26.18
2022-08-05T07:49:02.857Z,26.22
2022-08-05T07:51:37.207Z,25.98
2022-08-05T07:54:09.933Z,25.68
2022-08-05T07:56:39.319Z,25.83
2022-08-05T07:59:31.007Z,25.77
2022-08-05T08:02:15.860Z,26.08
2022-08-05T08:04:46.796Z,25.95
2022-08-05T08:07:15.618Z,25.95
2022-08-05T08:09:44.013Z,25.99
2022-08-05T08:12:33.266Z,25.97
2022-08-05T08:15:02.067Z,25.91
2022-08-05T08:17:32.454Z,25.78
2022-08-05T08:20:22.670Z,25.39
2022-08-05T08:22:53.632Z,25.38
2022-08-05T08:25:27.126Z,25.45
2022-08-05T08:28:18.880Z,25.43
2022-08-05T08:31:01.142Z,25.47
2022-08-05T08:33:30.639Z,25.31
2022-08-05T08:36:38.779Z,25.21
2022-08-05T08:38:57.059Z,25.14
2022-08-05T08:41:52.144Z,25.06
2022-08-05T08:45:23.002Z,25.04
2022-08-05T08:47:47.534Z,24.81
2022-08-05T08:50:14.162Z,24.80
2022-08-05T08:52:53.423Z,24.60
2022-08-05T08:56:01.771Z,24.73
2022-08-05T08:58:12.832Z,24.42
2022-08-05T09:00:44.643Z,24.32
2022-08-05T09:03:16.037Z,24.35
2022-08-05T09:06:08.923Z,24.23
2022-08-05T09:08:40.392Z,24.46
2022-08-05T09:11:12.122Z,24.64
2022-08-05T09:14:10.313Z,24.78
2022-08-05T09:16:31.550Z,24.89
2022-08-05T09:18:59.738Z,25.11
2022-08-05T09:22:23.624Z,25.53
2022-08-05T09:24:18.375Z,26.02
2022-08-05T09:26:51.740Z,26.46
2022-08-05T09:29:20.641Z,27.13
2022-08-05T09:32:41.296Z,27.76
2022-08-05T09:34:54.877Z,27.80
2022-08-05T09:38:12.731Z,27.54
2022-08-05T09:40:32.091Z,29.72
2022-08-05T09:43:01.264Z,30.67
2022-08-05T09:46:07.802Z,30.39
2022-08-05T09:48:28.557Z,29.84
2022-08-05T09:51:00.745Z,29.62
2022-08-05T09:53:54.883Z,29.87
2022-08-05T09:56:26.279Z,30.06
2022-08-05T09:59:04.088Z,30.50
2022-08-05T10:01:35.088Z,30.00
2022-08-05T10:04:10.651Z,30.60
2022-08-05T10:06:41.400Z,30.25
2022-08-05T10:09:28.005Z,30.48
2022-08-05T10:12:30.671Z,30.60
2022-08-05T10:15:16.956Z,30.32
2022-08-05T10:18:07.996Z,31.27
2022-08-05T10:20:38.496Z,31.34
2022-08-05T10:23:08.970Z,31.91
2022-08-05T10:25:57.294Z,32.44
2022-08-05T10:28:29.197Z,32.20
2022-08-05T10:32:51.959Z,32.20
2022-08-05T10:33:52.370Z,32.91
2022-08-05T10:36:23.493Z,32.26
2022-08-05T10:38:58.239Z,31.62
2022-08-05T10:41:46.714Z,31.75
2022-08-05T10:44:18.262Z,31.57
2022-08-05T10:46:51.055Z,31.60
2022-08-05T10:49:26.757Z,31.96
2022-08-05T10:52:00.357Z,31.62
2022-08-05T10:54:56.605Z,31.25
2022-08-05T10:57:33.821Z,30.16
2022-08-05T11:00:19.190Z,30.14
2022-08-05T11:03:24.397Z,30.25
2022-08-05T11:06:16.276Z,30.75
2022-08-05T11:09:39.511Z,30.96
2022-08-05T11:12:50.834Z,30.39
2022-08-05T11:16:00.895Z,29.96
2022-08-05T11:18:29.939Z,29.35
2022-08-05T11:20:59.100Z,28.80
2022-08-05T11:23:33.401Z,28.74
2022-08-05T11:26:32.242Z,28.61
2022-08-05T11:29:12.076Z,28.63
2022-08-05T11:31:54.064Z,28.70
2022-08-05T11:34:38.614Z,28.64
2022-08-05T11:38:29.156Z,28.72
2022-08-05T11:40:02.790Z,28.79
2022-08-05T11:42:37.762Z,29.28
2022-08-05T11:45:23.534Z,29.52
2022-08-05T11:47:58.841Z,29.77
2022-08-05T11:50:27.532Z,29.78
2022-08-05T11:52:58.232Z,30.14
2022-08-05T11:55:31.646Z,30.30
2022-08-05T11:58:09.615Z,30.41
2022-08-05T12:00:44.165Z,30.27
2022-08-05T12:03:28.875Z,30.01
2022-08-05T12:06:06.551Z,30.48
2022-08-05T12:08:51.046Z,30.87
2022-08-05T12:11:21.740Z,30.79
2022-08-05T12:13:58.672Z,30.83
2022-08-05T12:16:32.745Z,30.40
2022-08-05T12:19:08.341Z,30.33
2022-08-05T12:21:43.032Z,30.49
2022-08-05T12:24:14.074Z,30.49
2022-08-05T12:26:48.405Z,30.51
2022-08-05T12:29:22.979Z,30.91
2022-08-05T12:31:54.750Z,30.60
2022-08-05T12:34:28.124Z,30.68
2022-08-05T12:36:58.090Z,30.67
2022-08-05T12:39:27.981Z,30.78
2022-08-05T12:42:03.889Z,30.36
2022-08-05T12:44:33.929Z,30.75
2022-08-05T12:47:04.674Z,30.42
2022-08-05T12:50:02.133Z,30.07
2022-08-05T12:52:38.654Z,29.47
2022-08-05T12:55:23.268Z,29.55
2022-08-05T12:58:48.421Z,29.12
2022-08-05T13:02:03.461Z,29.25
2022-08-05T13:03:41.380Z,29.96
2022-08-05T13:06:14.303Z,30.91
2022-08-05T13:08:51.583Z,30.89
2022-08-05T13:12:02.258Z,30.28
2022-08-05T13:14:19.447Z,30.40
2022-08-05T13:16:54.822Z,30.45
2022-08-05T13:19:51.982Z,30.73
2022-08-05T13:22:29.378Z,30.60
2022-08-05T13:25:05.187Z,30.25
2022-08-05T13:27:38.711Z,29.82
2022-08-05T13:30:33.561Z,29.65
2022-08-05T13:33:01.203Z,29.57
2022-08-05T13:35:42.917Z,29.71
2022-08-05T13:38:30.179Z,29.58
2022-08-05T13:41:02.733Z,29.28
2022-08-05T13:43:44.130Z,30.19
2022-08-05T13:46:16.254Z,31.47
2022-08-05T13:48:57.663Z,31.79
2022-08-05T13:51:40.156Z,31.75
2022-08-05T13:54:12.473Z,30.73
2022-08-05T13:56:45.084Z,31.06
2022-08-05T13:59:21.122Z,31.32
2022-08-05T14:01:56.676Z,30.75
2022-08-05T14:04:49.422Z,30.69
2022-08-05T14:07:26.042Z,30.19
2022-08-05T14:10:10.707Z,30.38
2022-08-05T14:12:39.380Z,30.28
2022-08-05T14:16:07.071Z,30.15
2022-08-05T14:18:00.754Z,30.81
2022-08-05T14:20:29.645Z,31.43
2022-08-05T14:23:00.009Z,31.79
2022-08-05T14:25:30.054Z,31.00
2022-08-05T14:27:59.050Z,30.91
2022-08-05T14:30:27.844Z,30.61
2022-08-05T14:32:57.134Z,30.62
2022-08-05T14:35:36.244Z,30.62
2022-08-05T14:38:27.904Z,30.28
2022-08-05T14:41:06.918Z,29.83
2022-08-05T14:43:58.935Z,29.90
2022-08-05T14:46:29.860Z,29.68
2022-08-05T14:49:03.655Z,29.36
2022-08-05T14:51:36.468Z,29.03
2022-08-05T14:54:28.480Z,28.83
2022-08-05T14:56:56.084Z,28.61
2022-08-05T14:59:24.238Z,28.11
2022-08-05T15:01:53.636Z,28.20
2022-08-05T15:04:23.113Z,28.08
2022-08-05T15:06:55.466Z,27.58
2022-08-05T15:09:51.462Z,27.14
2022-08-05T15:12:16.720Z,27.18
2022-08-05T15:14:49.882Z,27.24
2022-08-05T15:17:47.709Z,26.93
2022-08-05T15:20:18.240Z,27.60
2022-08-05T15:22:54.417Z,27.91
2022-08-05T15:25:52.906Z,27.78
2022-08-05T15:28:15.528Z,27.63
2022-08-05T15:30:45.836Z,27.51
2022-08-05T15:33:56.853Z,27.42
2022-08-05T15:36:05.389Z,27.05
2022-08-05T15:38:40.959Z,26.79
2022-08-05T15:41:23.188Z,26.87
2022-08-05T15:43:54.964Z,27.01
2022-08-05T15:46:25.036Z,26.40
2022-08-05T15:48:58.916Z,26.15
2022-08-05T15:52:13.130Z,26.09
2022-08-05T15:54:19.105Z,26.08
2022-08-05T15:56:48.810Z,25.85
2022-08-05T15:59:20.261Z,26.00
2022-08-05T16:01:52.384Z,26.01
2022-08-05T16:04:25.360Z,25.99
2022-08-05T16:06:54.282Z,25.61
2022-08-05T16:09:24.686Z,25.59
2022-08-05T16:11:55.032Z,25.22
2022-08-05T16:14:24.648Z,24.98
2022-08-05T16:16:55.294Z,24.68
2022-08-05T16:20:03.489Z,24.77
2022-08-05T16:22:11.605Z,24.77
2022-08-05T16:24:51.715Z,24.65
2022-08-05T16:27:32.316Z,24.35
2022-08-05T16:30:26.337Z,24.31
2022-08-05T16:32:55.319Z,23.92
2022-08-05T16:35:24.848Z,23.89
2022-08-05T16:38:15.233Z,23.92
2022-08-05T16:40:47.715Z,24.22
2022-08-05T16:43:23.470Z,24.06
2022-08-05T16:46:03.550Z,23.92
2022-08-05T16:48:37.505Z,23.95
2022-08-05T16:51:09.480Z,23.70
2022-08-05T16:54:04.086Z,23.41
2022-08-05T16:56:33.594Z,23.41
2022-08-05T16:59:08.072Z,23.52
2022-08-05T17:01:53.283Z,23.47
2022-08-05T17:04:26.446Z,23.46
2022-08-05T17:07:00.127Z,23.47
2022-08-05T17:09:29.828Z,23.49
2022-08-05T17:11:59.796Z,23.32
2022-08-05T17:14:36.756Z,23.19
2022-08-05T17:17:14.465Z,23.11
2022-08-05T17:19:46.115Z,23.24
2022-08-05T17:22:24.998Z,23.32
2022-08-05T17:24:57.992Z,23.37
2022-08-05T17:27:33.731Z,23.33
2022-08-05T17:30:11.884Z,23.07
2022-08-05T17:32:46.796Z,22.97
2022-08-05T17:35:20.878Z,22.88
2022-08-05T17:37:49.419Z,22.85
2022-08-05T17:40:22.611Z,23.01
2022-08-05T17:42:52.906Z,22.90
2022-08-05T17:45:38.007Z,22.89
2022-08-05T17:48:08.614Z,22.77
2022-08-05T17:50:36.950Z,22.76
2022-08-05T17:53:08.338Z,22.65
2022-08-05T17:55:37.469Z,22.58
2022-08-05T17:58:09.838Z,22.51
2022-08-05T18:00:45.252Z,22.48
2022-08-05T18:03:56.525Z,22.48
2022-08-05T18:06:11.110Z,22.53
2022-08-05T18:08:44.854Z,22.56
2022-08-05T18:11:24.736Z,22.63
2022-08-05T18:14:04.386Z,22.49
2022-08-05T18:16:43.763Z,22.51
2022-08-05T18:19:23.104Z,22.50
2022-08-05T18:22:09.777Z,22.46
2022-08-05T18:24:40.257Z,22.44
2022-08-05T18:27:18.185Z,22.53
2022-08-05T18:29:53.699Z,22.48
2022-08-05T18:32:27.652Z,22.57
2022-08-05T18:34:56.906Z,22.58
2022-08-05T18:37:34.756Z,22.53
2022-08-05T18:41:50.639Z,22.60
2022-08-05T18:42:58.812Z,22.45
2022-08-05T18:45:41.526Z,22.66
2022-08-05T18:48:17.419Z,22.53
2022-08-05T18:52:02.949Z,22.46
2022-08-05T18:54:05.486Z,22.38
2022-08-05T18:56:33.956Z,22.50
2022-08-05T18:59:02.788Z,22.44
2022-08-05T19:01:58.194Z,22.29
2022-08-05T19:04:29.303Z,22.17
2022-08-05T19:06:57.615Z,22.24
2022-08-05T19:09:25.791Z,22.18
2022-08-05T19:12:00.516Z,22.11
2022-08-05T19:14:37.740Z,22.06
2022-08-05T19:17:18.297Z,22.11
2022-08-05T19:19:48.884Z,22.03
2022-08-05T19:22:17.780Z,21.90
2022-08-05T19:24:54.482Z,21.86
2022-08-05T19:27:30.215Z,21.83
2022-08-05T19:29:59.340Z,21.74
2022-08-05T19:32:27.911Z,21.73
2022-08-05T19:34:58.075Z,21.56
2022-08-05T19:37:35.145Z,21.58
2022-08-05T19:40:15.756Z,21.43
2022-08-05T19:43:04.617Z,21.41
2022-08-05T19:45:36.428Z,21.48
2022-08-05T19:48:06.217Z,21.40
2022-08-05T19:50:36.655Z,21.41
2022-08-05T19:53:09.628Z,21.35
2022-08-05T19:56:14.804Z,21.34
2022-08-05T19:58:29.823Z,21.37
2022-08-05T20:00:58.397Z,21.35
2022-08-05T20:03:38.842Z,21.30
2022-08-05T20:06:15.592Z,21.19
2022-08-05T20:08:47.579Z,21.17
2022-08-05T20:11:18.077Z,21.14
2022-08-05T20:13:58.349Z,21.11
2022-08-05T20:16:27.311Z,20.94
2022-08-05T20:18:55.851Z,20.84
2022-08-05T20:21:25.606Z,20.81
2022-08-05T20:23:53.783Z,20.92
2022-08-05T20:26:25.620Z,20.88
2022-08-05T20:28:56.280Z,20.74
2022-08-05T20:31:36.950Z,20.72
2022-08-05T20:34:10.126Z,20.70
2022-08-05T20:36:43.527Z,20.72
2022-08-05T20:39:13.061Z,20.65
2022-08-05T20:41:44.370Z,20.64
2022-08-05T20:44:18.548Z,20.50
2022-08-05T20:46:57.701Z,20.56
2022-08-05T20:49:26.274Z,20.60
2022-08-05T20:51:57.651Z,20.48
2022-08-05T20:54:55.028Z,20.37
2022-08-05T20:57:41.835Z,20.36
2022-08-05T21:00:20.345Z,20.30
2022-08-05T21:02:57.729Z,20.26
2022-08-05T21:05:37.994Z,20.16
2022-08-05T21:08:16.200Z,20.08
2022-08-05T21:10:48.970Z,20.00
2022-08-05T21:13:36.711Z,20.29
2022-08-05T21:16:06.593Z,20.08
2022-08-05T21:18:34.639Z,20.14
2022-08-05T21:21:04.248Z,20.29
2022-08-05T21:23:37.362Z,20.26
2022-08-05T21:26:14.549Z,20.19
2022-08-05T21:28:47.890Z,20.09
2022-08-05T21:31:19.311Z,20.00
2022-08-05T21:33:49.582Z,19.95
2022-08-05T21:36:19.407Z,19.84
2022-08-05T21:38:57.421Z,19.71
2022-08-05T21:41:34.019Z,19.60
2022-08-05T21:44:04.380Z,19.66
2022-08-05T21:46:34.654Z,19.69
2022-08-05T21:49:07.273Z,19.53
2022-08-05T21:52:22.552Z,19.56
2022-08-05T21:54:27.870Z,19.37
2022-08-05T21:57:15.408Z,19.46
2022-08-05T22:00:02.900Z,19.47
2022-08-05T22:02:41.604Z,19.40
2022-08-05T22:05:11.390Z,19.40
2022-08-05T22:07:58.108Z,19.44
2022-08-05T22:10:28.726Z,19.45
2022-08-05T22:12:59.169Z,19.32
2022-08-05T22:16:02.600Z,19.18
2022-08-05T22:18:25.958Z,19.08
2022-08-05T22:20:54.386Z,19.12
2022-08-05T22:24:02.509Z,19.02
2022-08-05T22:26:49.644Z,19.10
2022-08-05T22:29:26.231Z,19.18
2022-08-05T22:31:59.721Z,19.30
2022-08-05T22:34:32.063Z,19.29
2022-08-05T22:37:01.111Z,19.21
2022-08-05T22:39:33.956Z,19.32
2022-08-05T22:42:11.548Z,19.17
2022-08-05T22:44:42.483Z,19.13
2022-08-05T22:47:29.950Z,19.02
2022-08-05T22:50:20.986Z,19.01
2022-08-05T22:52:49.111Z,19.19
2022-08-05T22:55:19.150Z,19.13
2022-08-05T22:57:50.087Z,19.15
2022-08-05T23:00:20.756Z,19.10
2022-08-05T23:02:50.489Z,18.99
2022-08-05T23:05:19.094Z,19.13
2022-08-05T23:07:51.323Z,18.84
2022-08-05T23:10:20.932Z,18.72
2022-08-05T23:12:55.542Z,18.70
2022-08-05T23:15:26.998Z,18.69
2022-08-05T23:18:00.466Z,18.65
2022-08-05T23:20:29.958Z,18.62
2022-08-05T23:22:58.733Z,18.53
2022-08-05T23:25:53.688Z,18.44
2022-08-05T23:28:17.269Z,18.32
2022-08-05T23:30:53.446Z,18.34
2022-08-05T23:33:26.452Z,18.33
2022-08-05T23:36:13.524Z,18.20
2022-08-05T23:38:42.775Z,18.18
2022-08-05T23:41:12.114Z,18.32
2022-08-05T23:44:05.930Z,18.25
2022-08-05T23:46:30.403Z,18.27
2022-08-05T23:49:00.512Z,18.33
2022-08-05T23:51:52.519Z,18.31
2022-08-05T23:54:25.468Z,18.39
2022-08-05T23:56:55.963Z,18.32
